sensor_id;sensor_type;location;lat;lon;timestamp;P1;durP1;ratioP1;P2;durP2;ratioP2
11042;SDS011;5574;48.786;10.120;2023-05-01T00:01:22;5.30;;;3.57;;
11042;SDS011;5574;48.786;10.120;2023-05-01T00:03:49;3.40;;;3.10;;
11042;SDS011;5574;48.786;10.120;2023-05-01T00:06:16;4.67;;;3.10;;
11042;SDS011;5574;48.786;10.120;2023-05-01T00:08:42;3.60;;;3.30;;
11042;SDS011;5574;48.786;10.120;2023-05-01T00:11:09;4.03;;;3.73;;
11042;SDS011;5574;48.786;10.120;2023-05-01T00:13:36;4.13;;;3.80;;
11042;SDS011;5574;48.786;10.120;2023-05-01T00:16:06;4.10;;;3.47;;
11042;SDS011;5574;48.786;10.120;2023-05-01T00:18:35;4.23;;;3.87;;
11042;SDS011;5574;48.786;10.120;2023-05-01T00:21:02;4.90;;;3.80;;
11042;SDS011;5574;48.786;10.120;2023-05-01T00:23:29;4.50;;;3.80;;
11042;SDS011;5574;48.786;10.120;2023-05-01T00:25:55;3.60;;;3.30;;
11042;SDS011;5574;48.786;10.120;2023-05-01T00:28:22;4.23;;;3.70;;
11042;SDS011;5574;48.786;10.120;2023-05-01T00:30:49;3.77;;;3.47;;
11042;SDS011;5574;48.786;10.120;2023-05-01T00:33:16;3.87;;;3.57;;
11042;SDS011;5574;48.786;10.120;2023-05-01T00:35:44;4.03;;;3.73;;
11042;SDS011;5574;48.786;10.120;2023-05-01T00:38:11;4.10;;;3.80;;
11042;SDS011;5574;48.786;10.120;2023-05-01T00:40:41;3.90;;;3.50;;
11042;SDS011;5574;48.786;10.120;2023-05-01T00:43:09;4.97;;;4.13;;
11042;SDS011;5574;48.786;10.120;2023-05-01T00:45:36;4.50;;;3.80;;
11042;SDS011;5574;48.786;10.120;2023-05-01T00:48:03;4.17;;;3.87;;
11042;SDS011;5574;48.786;10.120;2023-05-01T00:50:30;4.70;;;4.30;;
11042;SDS011;5574;48.786;10.120;2023-05-01T00:52:58;4.13;;;3.83;;
11042;SDS011;5574;48.786;10.120;2023-05-01T00:55:25;4.10;;;3.80;;
11042;SDS011;5574;48.786;10.120;2023-05-01T00:57:52;3.73;;;3.43;;
11042;SDS011;5574;48.786;10.120;2023-05-01T01:00:20;3.63;;;3.20;;
11042;SDS011;5574;48.786;10.120;2023-05-01T01:02:48;3.90;;;3.20;;
11042;SDS011;5574;48.786;10.120;2023-05-01T01:05:15;3.50;;;3.20;;
11042;SDS011;5574;48.786;10.120;2023-05-01T01:07:44;3.63;;;3.03;;
11042;SDS011;5574;48.786;10.120;2023-05-01T01:10:22;3.37;;;3.07;;
11042;SDS011;5574;48.786;10.120;2023-05-01T01:12:57;3.80;;;3.40;;
11042;SDS011;5574;48.786;10.120;2023-05-01T01:15:32;3.77;;;3.47;;
11042;SDS011;5574;48.786;10.120;2023-05-01T01:18:06;3.57;;;3.23;;
11042;SDS011;5574;48.786;10.120;2023-05-01T01:20:37;3.37;;;3.07;;
11042;SDS011;5574;48.786;10.120;2023-05-01T01:26:33;4.47;;;3.57;;
11042;SDS011;5574;48.786;10.120;2023-05-01T01:32:08;4.57;;;3.23;;
11042;SDS011;5574;48.786;10.120;2023-05-01T01:34:48;3.73;;;3.33;;
11042;SDS011;5574;48.786;10.120;2023-05-01T01:37:18;6.37;;;4.40;;
11042;SDS011;5574;48.786;10.120;2023-05-01T01:39:48;4.17;;;3.83;;
11042;SDS011;5574;48.786;10.120;2023-05-01T01:42:21;4.40;;;4.07;;
11042;SDS011;5574;48.786;10.120;2023-05-01T01:44:52;4.87;;;4.33;;
11042;SDS011;5574;48.786;10.120;2023-05-01T01:47:21;4.10;;;3.80;;
11042;SDS011;5574;48.786;10.120;2023-05-01T01:49:53;4.00;;;3.70;;
11042;SDS011;5574;48.786;10.120;2023-05-01T01:52:21;3.77;;;3.47;;
11042;SDS011;5574;48.786;10.120;2023-05-01T01:54:50;3.83;;;3.50;;
11042;SDS011;5574;48.786;10.120;2023-05-01T01:57:22;4.97;;;3.63;;
11042;SDS011;5574;48.786;10.120;2023-05-01T01:59:50;4.50;;;3.77;;
11042;SDS011;5574;48.786;10.120;2023-05-01T02:02:19;5.87;;;3.97;;
11042;SDS011;5574;48.786;10.120;2023-05-01T02:04:47;4.30;;;4.00;;
11042;SDS011;5574;48.786;10.120;2023-05-01T02:07:17;3.97;;;3.67;;
11042;SDS011;5574;48.786;10.120;2023-05-01T02:09:45;3.73;;;3.43;;
11042;SDS011;5574;48.786;10.120;2023-05-01T02:12:14;4.00;;;3.60;;
11042;SDS011;5574;48.786;10.120;2023-05-01T02:14:43;5.33;;;3.90;;
11042;SDS011;5574;48.786;10.120;2023-05-01T02:17:11;4.30;;;3.30;;
11042;SDS011;5574;48.786;10.120;2023-05-01T02:19:40;3.77;;;3.47;;
11042;SDS011;5574;48.786;10.120;2023-05-01T02:22:08;4.90;;;3.40;;
11042;SDS011;5574;48.786;10.120;2023-05-01T02:24:37;4.20;;;3.43;;
11042;SDS011;5574;48.786;10.120;2023-05-01T02:27:06;4.07;;;3.67;;
11042;SDS011;5574;48.786;10.120;2023-05-01T02:29:37;4.20;;;3.80;;
11042;SDS011;5574;48.786;10.120;2023-05-01T02:32:04;3.80;;;3.50;;
11042;SDS011;5574;48.786;10.120;2023-05-01T02:34:32;3.33;;;3.03;;
11042;SDS011;5574;48.786;10.120;2023-05-01T02:36:59;3.97;;;3.60;;
11042;SDS011;5574;48.786;10.120;2023-05-01T02:39:26;3.87;;;3.20;;
11042;SDS011;5574;48.786;10.120;2023-05-01T02:41:54;3.60;;;3.30;;
11042;SDS011;5574;48.786;10.120;2023-05-01T02:44:24;3.70;;;3.37;;
11042;SDS011;5574;48.786;10.120;2023-05-01T02:46:52;3.87;;;3.57;;
11042;SDS011;5574;48.786;10.120;2023-05-01T02:49:21;4.40;;;3.37;;
11042;SDS011;5574;48.786;10.120;2023-05-01T02:51:48;3.53;;;3.33;;
11042;SDS011;5574;48.786;10.120;2023-05-01T02:54:15;5.03;;;3.73;;
11042;SDS011;5574;48.786;10.120;2023-05-01T02:56:42;3.43;;;3.20;;
11042;SDS011;5574;48.786;10.120;2023-05-01T02:59:10;3.57;;;3.27;;
11042;SDS011;5574;48.786;10.120;2023-05-01T03:01:37;3.80;;;3.50;;
11042;SDS011;5574;48.786;10.120;2023-05-01T03:04:04;3.53;;;3.23;;
11042;SDS011;5574;48.786;10.120;2023-05-01T03:06:31;3.87;;;3.43;;
11042;SDS011;5574;48.786;10.120;2023-05-01T03:08:57;3.90;;;3.60;;
11042;SDS011;5574;48.786;10.120;2023-05-01T03:11:25;5.73;;;3.50;;
11042;SDS011;5574;48.786;10.120;2023-05-01T03:13:51;4.50;;;3.50;;
11042;SDS011;5574;48.786;10.120;2023-05-01T03:16:19;3.90;;;3.60;;
11042;SDS011;5574;48.786;10.120;2023-05-01T03:18:46;3.60;;;3.30;;
11042;SDS011;5574;48.786;10.120;2023-05-01T03:21:12;3.63;;;3.30;;
11042;SDS011;5574;48.786;10.120;2023-05-01T03:23:39;3.53;;;3.13;;
11042;SDS011;5574;48.786;10.120;2023-05-01T03:26:06;3.60;;;3.30;;
11042;SDS011;5574;48.786;10.120;2023-05-01T03:28:32;3.57;;;3.27;;
11042;SDS011;5574;48.786;10.120;2023-05-01T03:30:59;3.13;;;2.93;;
11042;SDS011;5574;48.786;10.120;2023-05-01T03:33:27;3.63;;;3.33;;
11042;SDS011;5574;48.786;10.120;2023-05-01T03:35:58;3.80;;;3.50;;
11042;SDS011;5574;48.786;10.120;2023-05-01T03:38:27;3.37;;;3.07;;
11042;SDS011;5574;48.786;10.120;2023-05-01T03:40:54;3.40;;;3.10;;
11042;SDS011;5574;48.786;10.120;2023-05-01T03:43:21;3.90;;;3.60;;
11042;SDS011;5574;48.786;10.120;2023-05-01T03:45:48;4.30;;;3.00;;
11042;SDS011;5574;48.786;10.120;2023-05-01T03:48:14;4.10;;;3.70;;
11042;SDS011;5574;48.786;10.120;2023-05-01T03:50:42;4.57;;;4.17;;
11042;SDS011;5574;48.786;10.120;2023-05-01T03:53:09;4.80;;;4.30;;
11042;SDS011;5574;48.786;10.120;2023-05-01T03:55:37;5.57;;;4.33;;
11042;SDS011;5574;48.786;10.120;2023-05-01T03:58:04;4.80;;;4.40;;
11042;SDS011;5574;48.786;10.120;2023-05-01T04:00:31;4.57;;;4.17;;
11042;SDS011;5574;48.786;10.120;2023-05-01T04:02:58;5.43;;;4.47;;
11042;SDS011;5574;48.786;10.120;2023-05-01T04:05:25;5.13;;;4.03;;
11042;SDS011;5574;48.786;10.120;2023-05-01T04:07:52;4.80;;;4.40;;
11042;SDS011;5574;48.786;10.120;2023-05-01T04:10:19;4.20;;;3.83;;
11042;SDS011;5574;48.786;10.120;2023-05-01T04:12:46;4.40;;;4.00;;
11042;SDS011;5574;48.786;10.120;2023-05-01T04:15:13;4.43;;;4.10;;
11042;SDS011;5574;48.786;10.120;2023-05-01T04:17:40;4.13;;;3.77;;
11042;SDS011;5574;48.786;10.120;2023-05-01T04:20:08;4.27;;;3.97;;
11042;SDS011;5574;48.786;10.120;2023-05-01T04:22:35;4.33;;;3.93;;
11042;SDS011;5574;48.786;10.120;2023-05-01T04:25:03;6.33;;;5.23;;
11042;SDS011;5574;48.786;10.120;2023-05-01T04:27:31;4.90;;;4.50;;
11042;SDS011;5574;48.786;10.120;2023-05-01T04:29:58;5.17;;;4.67;;
11042;SDS011;5574;48.786;10.120;2023-05-01T04:32:25;4.97;;;4.47;;
11042;SDS011;5574;48.786;10.120;2023-05-01T04:34:51;4.80;;;4.30;;
11042;SDS011;5574;48.786;10.120;2023-05-01T04:37:18;4.50;;;4.00;;
11042;SDS011;5574;48.786;10.120;2023-05-01T04:39:45;4.43;;;4.03;;
11042;SDS011;5574;48.786;10.120;2023-05-01T04:42:12;4.07;;;3.70;;
11042;SDS011;5574;48.786;10.120;2023-05-01T04:44:39;4.33;;;4.00;;
11042;SDS011;5574;48.786;10.120;2023-05-01T04:47:06;4.10;;;3.70;;
11042;SDS011;5574;48.786;10.120;2023-05-01T04:49:33;4.13;;;3.73;;
11042;SDS011;5574;48.786;10.120;2023-05-01T04:52:00;5.23;;;3.70;;
11042;SDS011;5574;48.786;10.120;2023-05-01T04:54:26;5.83;;;3.80;;
11042;SDS011;5574;48.786;10.120;2023-05-01T04:56:53;4.00;;;3.70;;
11042;SDS011;5574;48.786;10.120;2023-05-01T04:59:21;3.80;;;3.50;;
11042;SDS011;5574;48.786;10.120;2023-05-01T05:01:47;4.77;;;3.80;;
11042;SDS011;5574;48.786;10.120;2023-05-01T05:04:14;4.27;;;3.87;;
11042;SDS011;5574;48.786;10.120;2023-05-01T05:06:41;4.40;;;4.00;;
11042;SDS011;5574;48.786;10.120;2023-05-01T05:09:07;4.07;;;3.70;;
11042;SDS011;5574;48.786;10.120;2023-05-01T05:11:34;4.47;;;4.07;;
11042;SDS011;5574;48.786;10.120;2023-05-01T05:14:01;4.93;;;4.00;;
11042;SDS011;5574;48.786;10.120;2023-05-01T05:16:29;4.03;;;3.60;;
11042;SDS011;5574;48.786;10.120;2023-05-01T05:18:55;3.80;;;3.50;;
11042;SDS011;5574;48.786;10.120;2023-05-01T05:21:22;4.13;;;3.73;;
11042;SDS011;5574;48.786;10.120;2023-05-01T05:23:49;4.27;;;3.97;;
11042;SDS011;5574;48.786;10.120;2023-05-01T05:26:16;4.27;;;3.87;;
11042;SDS011;5574;48.786;10.120;2023-05-01T05:28:42;4.40;;;4.00;;
11042;SDS011;5574;48.786;10.120;2023-05-01T05:31:09;4.60;;;4.20;;
11042;SDS011;5574;48.786;10.120;2023-05-01T05:33:37;4.40;;;4.10;;
11042;SDS011;5574;48.786;10.120;2023-05-01T05:36:04;4.57;;;4.17;;
11042;SDS011;5574;48.786;10.120;2023-05-01T05:38:31;4.00;;;3.70;;
11042;SDS011;5574;48.786;10.120;2023-05-01T05:40:58;4.63;;;4.20;;
11042;SDS011;5574;48.786;10.120;2023-05-01T05:43:24;4.20;;;3.80;;
11042;SDS011;5574;48.786;10.120;2023-05-01T05:45:55;4.53;;;4.13;;
11042;SDS011;5574;48.786;10.120;2023-05-01T05:48:21;4.30;;;3.93;;
11042;SDS011;5574;48.786;10.120;2023-05-01T05:50:50;4.63;;;4.23;;
11042;SDS011;5574;48.786;10.120;2023-05-01T05:53:16;4.43;;;4.03;;
11042;SDS011;5574;48.786;10.120;2023-05-01T05:55:43;5.00;;;4.47;;
11042;SDS011;5574;48.786;10.120;2023-05-01T05:58:11;5.10;;;4.20;;
11042;SDS011;5574;48.786;10.120;2023-05-01T06:00:43;4.63;;;4.17;;
11042;SDS011;5574;48.786;10.120;2023-05-01T06:03:11;4.93;;;4.17;;
11042;SDS011;5574;48.786;10.120;2023-05-01T06:05:38;4.43;;;4.03;;
11042;SDS011;5574;48.786;10.120;2023-05-01T06:08:06;4.70;;;4.30;;
11042;SDS011;5574;48.786;10.120;2023-05-01T06:10:34;4.47;;;4.07;;
11042;SDS011;5574;48.786;10.120;2023-05-01T06:13:01;4.07;;;3.77;;
11042;SDS011;5574;48.786;10.120;2023-05-01T06:15:27;4.70;;;4.30;;
11042;SDS011;5574;48.786;10.120;2023-05-01T06:17:55;5.53;;;4.50;;
11042;SDS011;5574;48.786;10.120;2023-05-01T06:20:22;4.83;;;4.40;;
11042;SDS011;5574;48.786;10.120;2023-05-01T06:22:48;4.93;;;4.40;;
11042;SDS011;5574;48.786;10.120;2023-05-01T06:25:17;5.07;;;4.60;;
11042;SDS011;5574;48.786;10.120;2023-05-01T06:27:43;4.80;;;4.30;;
11042;SDS011;5574;48.786;10.120;2023-05-01T06:30:10;5.50;;;5.00;;
11042;SDS011;5574;48.786;10.120;2023-05-01T06:32:37;5.00;;;4.60;;
11042;SDS011;5574;48.786;10.120;2023-05-01T06:35:06;5.10;;;4.30;;
11042;SDS011;5574;48.786;10.120;2023-05-01T06:37:33;5.83;;;4.90;;
11042;SDS011;5574;48.786;10.120;2023-05-01T06:40:00;5.67;;;5.07;;
11042;SDS011;5574;48.786;10.120;2023-05-01T06:42:28;5.13;;;4.73;;
11042;SDS011;5574;48.786;10.120;2023-05-01T06:44:54;4.87;;;4.37;;
11042;SDS011;5574;48.786;10.120;2023-05-01T06:47:21;5.30;;;4.80;;
11042;SDS011;5574;48.786;10.120;2023-05-01T06:49:48;6.07;;;4.73;;
11042;SDS011;5574;48.786;10.120;2023-05-01T06:52:14;5.70;;;4.97;;
11042;SDS011;5574;48.786;10.120;2023-05-01T06:54:41;5.10;;;4.50;;
11042;SDS011;5574;48.786;10.120;2023-05-01T06:57:08;5.23;;;4.70;;
11042;SDS011;5574;48.786;10.120;2023-05-01T06:59:36;5.03;;;4.53;;
11042;SDS011;5574;48.786;10.120;2023-05-01T07:02:03;5.30;;;4.80;;
11042;SDS011;5574;48.786;10.120;2023-05-01T07:04:30;5.20;;;4.70;;
11042;SDS011;5574;48.786;10.120;2023-05-01T07:06:56;5.73;;;5.13;;
11042;SDS011;5574;48.786;10.120;2023-05-01T07:09:23;5.17;;;4.67;;
11042;SDS011;5574;48.786;10.120;2023-05-01T07:11:50;5.30;;;4.70;;
11042;SDS011;5574;48.786;10.120;2023-05-01T07:14:17;5.60;;;5.10;;
11042;SDS011;5574;48.786;10.120;2023-05-01T07:16:45;8.13;;;5.17;;
11042;SDS011;5574;48.786;10.120;2023-05-01T07:19:12;5.30;;;4.83;;
11042;SDS011;5574;48.786;10.120;2023-05-01T07:21:39;5.67;;;5.17;;
11042;SDS011;5574;48.786;10.120;2023-05-01T07:24:06;5.47;;;4.73;;
11042;SDS011;5574;48.786;10.120;2023-05-01T07:26:32;6.37;;;4.83;;
11042;SDS011;5574;48.786;10.120;2023-05-01T07:28:59;6.37;;;5.03;;
11042;SDS011;5574;48.786;10.120;2023-05-01T07:31:26;5.13;;;4.73;;
11042;SDS011;5574;48.786;10.120;2023-05-01T07:33:54;5.43;;;4.93;;
11042;SDS011;5574;48.786;10.120;2023-05-01T07:36:20;5.77;;;5.27;;
11042;SDS011;5574;48.786;10.120;2023-05-01T07:38:48;5.57;;;5.00;;
11042;SDS011;5574;48.786;10.120;2023-05-01T07:41:14;5.67;;;5.17;;
11042;SDS011;5574;48.786;10.120;2023-05-01T07:43:41;5.17;;;4.77;;
11042;SDS011;5574;48.786;10.120;2023-05-01T07:46:08;5.70;;;5.20;;
11042;SDS011;5574;48.786;10.120;2023-05-01T07:48:35;5.80;;;5.30;;
11042;SDS011;5574;48.786;10.120;2023-05-01T07:51:03;5.80;;;5.30;;
11042;SDS011;5574;48.786;10.120;2023-05-01T07:53:30;5.70;;;5.10;;
11042;SDS011;5574;48.786;10.120;2023-05-01T07:56:03;5.40;;;4.90;;
11042;SDS011;5574;48.786;10.120;2023-05-01T07:58:31;6.70;;;5.63;;
11042;SDS011;5574;48.786;10.120;2023-05-01T08:00:57;5.40;;;4.90;;
11042;SDS011;5574;48.786;10.120;2023-05-01T08:03:26;5.53;;;5.03;;
11042;SDS011;5574;48.786;10.120;2023-05-01T08:05:53;6.30;;;5.80;;
11042;SDS011;5574;48.786;10.120;2023-05-01T08:08:21;5.63;;;5.13;;
11042;SDS011;5574;48.786;10.120;2023-05-01T08:10:48;5.90;;;5.40;;
11042;SDS011;5574;48.786;10.120;2023-05-01T08:13:15;6.70;;;6.10;;
11042;SDS011;5574;48.786;10.120;2023-05-01T08:15:43;6.47;;;5.87;;
11042;SDS011;5574;48.786;10.120;2023-05-01T08:18:10;6.20;;;5.60;;
11042;SDS011;5574;48.786;10.120;2023-05-01T08:20:39;5.73;;;5.23;;
11042;SDS011;5574;48.786;10.120;2023-05-01T08:23:06;6.13;;;5.03;;
11042;SDS011;5574;48.786;10.120;2023-05-01T08:25:34;5.77;;;5.30;;
11042;SDS011;5574;48.786;10.120;2023-05-01T08:28:00;5.83;;;5.23;;
11042;SDS011;5574;48.786;10.120;2023-05-01T08:30:27;5.50;;;5.00;;
11042;SDS011;5574;48.786;10.120;2023-05-01T08:32:55;6.37;;;5.77;;
11042;SDS011;5574;48.786;10.120;2023-05-01T08:35:22;5.67;;;5.17;;
11042;SDS011;5574;48.786;10.120;2023-05-01T08:37:49;6.43;;;5.83;;
11042;SDS011;5574;48.786;10.120;2023-05-01T08:40:15;6.43;;;5.77;;
11042;SDS011;5574;48.786;10.120;2023-05-01T08:42:43;6.03;;;5.53;;
11042;SDS011;5574;48.786;10.120;2023-05-01T08:45:10;6.20;;;5.60;;
11042;SDS011;5574;48.786;10.120;2023-05-01T08:47:38;6.00;;;5.43;;
11042;SDS011;5574;48.786;10.120;2023-05-01T08:50:08;6.60;;;6.00;;
11042;SDS011;5574;48.786;10.120;2023-05-01T08:52:36;6.27;;;5.77;;
11042;SDS011;5574;48.786;10.120;2023-05-01T08:55:07;6.60;;;6.10;;
11042;SDS011;5574;48.786;10.120;2023-05-01T08:57:36;6.83;;;5.53;;
11042;SDS011;5574;48.786;10.120;2023-05-01T09:00:06;6.10;;;5.47;;
11042;SDS011;5574;48.786;10.120;2023-05-01T09:02:39;6.40;;;5.80;;
11042;SDS011;5574;48.786;10.120;2023-05-01T09:05:08;6.10;;;5.50;;
11042;SDS011;5574;48.786;10.120;2023-05-01T09:07:35;6.17;;;5.67;;
11042;SDS011;5574;48.786;10.120;2023-05-01T09:10:02;5.97;;;5.47;;
11042;SDS011;5574;48.786;10.120;2023-05-01T09:12:30;5.83;;;5.37;;
11042;SDS011;5574;48.786;10.120;2023-05-01T09:15:00;5.97;;;5.43;;
11042;SDS011;5574;48.786;10.120;2023-05-01T09:17:29;6.43;;;5.83;;
11042;SDS011;5574;48.786;10.120;2023-05-01T09:19:57;5.83;;;5.30;;
11042;SDS011;5574;48.786;10.120;2023-05-01T09:22:26;6.20;;;5.70;;
11042;SDS011;5574;48.786;10.120;2023-05-01T09:24:55;5.60;;;5.20;;
11042;SDS011;5574;48.786;10.120;2023-05-01T09:27:23;5.97;;;5.47;;
11042;SDS011;5574;48.786;10.120;2023-05-01T09:29:50;7.43;;;5.20;;
11042;SDS011;5574;48.786;10.120;2023-05-01T09:32:17;6.50;;;5.60;;
11042;SDS011;5574;48.786;10.120;2023-05-01T09:34:47;6.23;;;5.63;;
11042;SDS011;5574;48.786;10.120;2023-05-01T09:37:23;6.10;;;5.60;;
11042;SDS011;5574;48.786;10.120;2023-05-01T09:40:00;5.60;;;5.13;;
11042;SDS011;5574;48.786;10.120;2023-05-01T09:42:31;6.23;;;5.63;;
11042;SDS011;5574;48.786;10.120;2023-05-01T09:45:02;5.73;;;5.23;;
11042;SDS011;5574;48.786;10.120;2023-05-01T09:47:29;6.00;;;5.50;;
11042;SDS011;5574;48.786;10.120;2023-05-01T09:49:59;6.10;;;5.50;;
11042;SDS011;5574;48.786;10.120;2023-05-01T09:52:26;5.47;;;5.07;;
11042;SDS011;5574;48.786;10.120;2023-05-01T09:55:12;6.50;;;5.87;;
11042;SDS011;5574;48.786;10.120;2023-05-01T09:57:43;6.77;;;5.63;;
11042;SDS011;5574;48.786;10.120;2023-05-01T10:00:10;5.73;;;5.23;;
11042;SDS011;5574;48.786;10.120;2023-05-01T10:02:39;5.93;;;5.27;;
11042;SDS011;5574;48.786;10.120;2023-05-01T10:05:10;5.70;;;5.20;;
11042;SDS011;5574;48.786;10.120;2023-05-01T10:07:38;5.60;;;5.10;;
11042;SDS011;5574;48.786;10.120;2023-05-01T10:10:14;5.53;;;5.03;;
11042;SDS011;5574;48.786;10.120;2023-05-01T10:12:42;5.63;;;5.17;;
11042;SDS011;5574;48.786;10.120;2023-05-01T10:15:09;6.10;;;5.57;;
11042;SDS011;5574;48.786;10.120;2023-05-01T10:17:36;5.70;;;5.10;;
11042;SDS011;5574;48.786;10.120;2023-05-01T10:20:04;5.67;;;5.10;;
11042;SDS011;5574;48.786;10.120;2023-05-01T10:22:33;5.50;;;5.10;;
11042;SDS011;5574;48.786;10.120;2023-05-01T10:25:00;7.67;;;5.10;;
11042;SDS011;5574;48.786;10.120;2023-05-01T10:27:28;5.60;;;5.10;;
11042;SDS011;5574;48.786;10.120;2023-05-01T10:29:55;6.13;;;5.10;;
11042;SDS011;5574;48.786;10.120;2023-05-01T10:32:26;5.07;;;4.67;;
11042;SDS011;5574;48.786;10.120;2023-05-01T10:34:56;6.10;;;5.10;;
11042;SDS011;5574;48.786;10.120;2023-05-01T10:37:30;5.60;;;5.10;;
11042;SDS011;5574;48.786;10.120;2023-05-01T10:43:11;5.90;;;5.20;;
11042;SDS011;5574;48.786;10.120;2023-05-01T10:45:39;5.60;;;5.13;;
11042;SDS011;5574;48.786;10.120;2023-05-01T10:48:06;6.97;;;5.57;;
11042;SDS011;5574;48.786;10.120;2023-05-01T10:50:33;13.57;;;10.80;;
11042;SDS011;5574;48.786;10.120;2023-05-01T10:53:16;5.70;;;5.20;;
11042;SDS011;5574;48.786;10.120;2023-05-01T10:55:43;5.80;;;5.30;;
11042;SDS011;5574;48.786;10.120;2023-05-01T10:58:11;5.53;;;5.03;;
11042;SDS011;5574;48.786;10.120;2023-05-01T11:00:39;6.07;;;5.47;;
11042;SDS011;5574;48.786;10.120;2023-05-01T11:06:04;6.20;;;5.60;;
11042;SDS011;5574;48.786;10.120;2023-05-01T11:08:33;6.47;;;5.87;;
11042;SDS011;5574;48.786;10.120;2023-05-01T11:14:05;5.17;;;4.77;;
11042;SDS011;5574;48.786;10.120;2023-05-01T11:16:41;5.20;;;4.80;;
11042;SDS011;5574;48.786;10.120;2023-05-01T11:19:10;5.00;;;4.43;;
11042;SDS011;5574;48.786;10.120;2023-05-01T11:21:59;5.60;;;5.10;;
11042;SDS011;5574;48.786;10.120;2023-05-01T11:24:33;4.70;;;4.28;;
11042;SDS011;5574;48.786;10.120;2023-05-01T11:27:00;5.33;;;4.50;;
11042;SDS011;5574;48.786;10.120;2023-05-01T11:29:29;4.90;;;4.50;;
11042;SDS011;5574;48.786;10.120;2023-05-01T11:31:57;4.97;;;4.57;;
11042;SDS011;5574;48.786;10.120;2023-05-01T11:34:24;4.45;;;4.03;;
11042;SDS011;5574;48.786;10.120;2023-05-01T11:36:52;5.07;;;4.18;;
11042;SDS011;5574;48.786;10.120;2023-05-01T11:39:19;4.43;;;4.03;;
11042;SDS011;5574;48.786;10.120;2023-05-01T11:41:47;4.53;;;4.13;;
11042;SDS011;5574;48.786;10.120;2023-05-01T11:44:14;4.88;;;4.43;;
11042;SDS011;5574;48.786;10.120;2023-05-01T11:46:42;4.65;;;4.22;;
11042;SDS011;5574;48.786;10.120;2023-05-01T11:49:09;4.70;;;4.30;;
11042;SDS011;5574;48.786;10.120;2023-05-01T11:51:36;4.25;;;3.90;;
11042;SDS011;5574;48.786;10.120;2023-05-01T11:54:04;5.30;;;4.78;;
11042;SDS011;5574;48.786;10.120;2023-05-01T11:56:32;4.60;;;4.20;;
11042;SDS011;5574;48.786;10.120;2023-05-01T11:59:09;5.47;;;4.35;;
11042;SDS011;5574;48.786;10.120;2023-05-01T12:01:38;4.53;;;4.13;;
11042;SDS011;5574;48.786;10.120;2023-05-01T12:04:07;6.38;;;4.55;;
11042;SDS011;5574;48.786;10.120;2023-05-01T12:06:34;4.32;;;3.92;;
11042;SDS011;5574;48.786;10.120;2023-05-01T12:09:04;5.22;;;4.30;;
11042;SDS011;5574;48.786;10.120;2023-05-01T12:11:31;4.85;;;4.30;;
11042;SDS011;5574;48.786;10.120;2023-05-01T12:13:58;5.07;;;4.68;;
11042;SDS011;5574;48.786;10.120;2023-05-01T12:16:27;4.75;;;4.35;;
11042;SDS011;5574;48.786;10.120;2023-05-01T12:18:54;7.15;;;4.97;;
11042;SDS011;5574;48.786;10.120;2023-05-01T12:21:21;5.20;;;4.80;;
11042;SDS011;5574;48.786;10.120;2023-05-01T12:23:49;4.53;;;4.13;;
11042;SDS011;5574;48.786;10.120;2023-05-01T12:26:16;4.68;;;4.28;;
11042;SDS011;5574;48.786;10.120;2023-05-01T12:28:54;4.93;;;4.43;;
11042;SDS011;5574;48.786;10.120;2023-05-01T12:31:23;4.75;;;4.35;;
11042;SDS011;5574;48.786;10.120;2023-05-01T12:33:53;5.03;;;4.22;;
11042;SDS011;5574;48.786;10.120;2023-05-01T12:36:21;5.07;;;4.68;;
11042;SDS011;5574;48.786;10.120;2023-05-01T12:38:54;4.28;;;3.97;;
11042;SDS011;5574;48.786;10.120;2023-05-01T12:41:31;4.80;;;4.40;;
11042;SDS011;5574;48.786;10.120;2023-05-01T12:43:58;5.00;;;4.60;;
11042;SDS011;5574;48.786;10.120;2023-05-01T12:46:27;4.90;;;4.57;;
11042;SDS011;5574;48.786;10.120;2023-05-01T12:48:54;4.22;;;3.83;;
11042;SDS011;5574;48.786;10.120;2023-05-01T12:51:21;5.95;;;4.25;;
11042;SDS011;5574;48.786;10.120;2023-05-01T12:53:48;4.63;;;4.13;;
11042;SDS011;5574;48.786;10.120;2023-05-01T12:56:19;4.50;;;4.20;;
11042;SDS011;5574;48.786;10.120;2023-05-01T12:58:47;4.70;;;4.30;;
11042;SDS011;5574;48.786;10.120;2023-05-01T13:01:22;4.38;;;3.97;;
11042;SDS011;5574;48.786;10.120;2023-05-01T13:03:51;4.97;;;4.57;;
11042;SDS011;5574;48.786;10.120;2023-05-01T13:06:20;4.50;;;4.20;;
11042;SDS011;5574;48.786;10.120;2023-05-01T13:08:47;4.40;;;4.00;;
11042;SDS011;5574;48.786;10.120;2023-05-01T13:11:15;5.30;;;4.65;;
11042;SDS011;5574;48.786;10.120;2023-05-01T13:13:43;5.18;;;4.68;;
11042;SDS011;5574;48.786;10.120;2023-05-01T13:16:11;4.32;;;4.03;;
11042;SDS011;5574;48.786;10.120;2023-05-01T13:18:43;4.55;;;4.15;;
11042;SDS011;5574;48.786;10.120;2023-05-01T13:21:12;4.13;;;3.83;;
11042;SDS011;5574;48.786;10.120;2023-05-01T13:23:41;4.40;;;4.10;;
11042;SDS011;5574;48.786;10.120;2023-05-01T13:26:16;4.60;;;4.20;;
11042;SDS011;5574;48.786;10.120;2023-05-01T13:28:43;4.90;;;4.07;;
11042;SDS011;5574;48.786;10.120;2023-05-01T13:31:10;4.93;;;4.53;;
11042;SDS011;5574;48.786;10.120;2023-05-01T13:33:38;5.22;;;4.07;;
11042;SDS011;5574;48.786;10.120;2023-05-01T13:36:07;4.50;;;4.20;;
11042;SDS011;5574;48.786;10.120;2023-05-01T13:38:40;5.05;;;4.25;;
11042;SDS011;5574;48.786;10.120;2023-05-01T13:41:13;4.20;;;3.88;;
11042;SDS011;5574;48.786;10.120;2023-05-01T13:43:41;4.70;;;4.20;;
11042;SDS011;5574;48.786;10.120;2023-05-01T13:46:09;4.50;;;4.10;;
11042;SDS011;5574;48.786;10.120;2023-05-01T13:48:37;4.28;;;3.90;;
11042;SDS011;5574;48.786;10.120;2023-05-01T13:51:05;5.13;;;4.53;;
11042;SDS011;5574;48.786;10.120;2023-05-01T13:53:32;4.57;;;4.18;;
11042;SDS011;5574;48.786;10.120;2023-05-01T13:56:01;4.43;;;4.03;;
11042;SDS011;5574;48.786;10.120;2023-05-01T13:58:29;4.45;;;4.10;;
11042;SDS011;5574;48.786;10.120;2023-05-01T14:00:56;4.50;;;4.10;;
11042;SDS011;5574;48.786;10.120;2023-05-01T14:03:22;4.53;;;3.55;;
11042;SDS011;5574;48.786;10.120;2023-05-01T14:05:49;4.47;;;4.07;;
11042;SDS011;5574;48.786;10.120;2023-05-01T14:08:17;6.28;;;4.50;;
11042;SDS011;5574;48.786;10.120;2023-05-01T14:10:46;4.50;;;4.20;;
11042;SDS011;5574;48.786;10.120;2023-05-01T14:13:14;5.50;;;4.15;;
11042;SDS011;5574;48.786;10.120;2023-05-01T14:15:43;4.70;;;4.35;;
11042;SDS011;5574;48.786;10.120;2023-05-01T14:18:10;4.72;;;4.28;;
11042;SDS011;5574;48.786;10.120;2023-05-01T14:20:41;4.15;;;3.85;;
11042;SDS011;5574;48.786;10.120;2023-05-01T14:23:12;4.32;;;3.92;;
11042;SDS011;5574;48.786;10.120;2023-05-01T14:25:41;4.80;;;4.40;;
11042;SDS011;5574;48.786;10.120;2023-05-01T14:28:14;5.43;;;4.53;;
11042;SDS011;5574;48.786;10.120;2023-05-01T14:30:41;5.47;;;4.65;;
11042;SDS011;5574;48.786;10.120;2023-05-01T14:33:09;6.80;;;4.40;;
11042;SDS011;5574;48.786;10.120;2023-05-01T14:35:36;4.97;;;4.43;;
11042;SDS011;5574;48.786;10.120;2023-05-01T14:38:12;4.20;;;3.60;;
11042;SDS011;5574;48.786;10.120;2023-05-01T14:40:40;4.07;;;3.78;;
11042;SDS011;5574;48.786;10.120;2023-05-01T14:43:08;4.57;;;4.18;;
11042;SDS011;5574;48.786;10.120;2023-05-01T14:45:40;4.00;;;3.67;;
11042;SDS011;5574;48.786;10.120;2023-05-01T14:48:09;3.55;;;3.25;;
11042;SDS011;5574;48.786;10.120;2023-05-01T14:50:40;4.10;;;3.80;;
11042;SDS011;5574;48.786;10.120;2023-05-01T14:53:07;4.43;;;4.03;;
11042;SDS011;5574;48.786;10.120;2023-05-01T14:55:35;4.32;;;3.90;;
11042;SDS011;5574;48.786;10.120;2023-05-01T14:58:03;4.28;;;3.85;;
11042;SDS011;5574;48.786;10.120;2023-05-01T15:00:29;4.80;;;4.05;;
11042;SDS011;5574;48.786;10.120;2023-05-01T15:02:58;3.83;;;3.42;;
11042;SDS011;5574;48.786;10.120;2023-05-01T15:05:25;3.78;;;3.45;;
11042;SDS011;5574;48.786;10.120;2023-05-01T15:07:53;4.97;;;4.00;;
11042;SDS011;5574;48.786;10.120;2023-05-01T15:10:21;3.85;;;3.55;;